Time;durP1;ratioP1;P1;durP2;ratioP2;P2;SDS_P1;SDS_P2;PMS_P1;PMS_P2;Temp;Humidity;BMP_temperature;BMP_pressure;BME280_temperature;BME280_humidity;BME280_pressure;Samples;Min_cycle;Max_cycle;Signal;HPM_P1;HPM_P2
2021/06/06 00:02:14;;;;;;;2.31;1.85;;;;;;;20.23;58.75;100880.00;;;;-54
2021/06/06 00:05:14;;;;;;;2.00;1.82;;;;;;;20.22;58.76;100881.47;;;;-54
2021/06/06 00:08:14;;;;;;;3.73;1.90;;;;;;;20.21;58.76;100874.96;;;;-54
2021/06/06 00:11:14;;;;;;;2.29;1.94;;;;;;;20.21;58.73;100879.52;;;;-54
2021/06/06 00:14:14;;;;;;;2.33;1.93;;;;;;;20.21;58.79;100883.64;;;;-54
2021/06/06 00:17:14;;;;;;;2.53;2.12;;;;;;;20.20;58.73;100881.61;;;;-54
2021/06/06 00:20:15;;;;;;;2.37;2.12;;;;;;;20.20;58.77;100885.35;;;;-55
2021/06/06 00:23:14;;;;;;;2.21;1.97;;;;;;;20.20;58.73;100886.81;;;;-54
2021/06/06 00:26:15;;;;;;;2.73;2.09;;;;;;;20.19;58.77;100887.87;;;;-54
2021/06/06 00:29:14;;;;;;;2.23;2.00;;;;;;;20.19;58.73;100888.98;;;;-54
2021/06/06 00:32:14;;;;;;;2.85;1.91;;;;;;;20.18;58.75;100885.41;;;;-55
2021/06/06 00:35:15;;;;;;;2.20;2.00;;;;;;;20.18;58.79;100885.08;;;;-56
2021/06/06 00:38:14;;;;;;;2.25;1.99;;;;;;;20.18;58.76;100888.26;;;;-55
2021/06/06 00:41:14;;;;;;;2.92;2.17;;;;;;;20.17;58.80;100889.56;;;;-55
2021/06/06 00:44:14;;;;;;;2.57;2.09;;;;;;;20.17;58.84;100890.84;;;;-54
2021/06/06 00:47:14;;;;;;;2.19;1.99;;;;;;;20.16;58.76;100890.52;;;;-54
2021/06/06 00:50:14;;;;;;;2.54;2.18;;;;;;;20.16;58.82;100889.22;;;;-54
2021/06/06 00:53:14;;;;;;;2.45;2.03;;;;;;;20.15;58.81;100884.66;;;;-55
2021/06/06 00:56:14;;;;;;;2.24;2.04;;;;;;;20.15;58.79;100889.22;;;;-55
2021/06/06 00:59:14;;;;;;;2.29;1.99;;;;;;;20.14;58.81;100885.86;;;;-54
2021/06/06 01:02:14;;;;;;;2.27;2.01;;;;;;;20.14;58.75;100891.23;;;;-54
2021/06/06 01:05:14;;;;;;;3.99;2.23;;;;;;;20.14;58.80;100892.70;;;;-55
2021/06/06 01:08:14;;;;;;;2.41;2.13;;;;;;;20.13;58.84;100892.53;;;;-54
2021/06/06 01:11:14;;;;;;;2.50;2.07;;;;;;;20.14;58.79;100892.70;;;;-55
2021/06/06 01:14:14;;;;;;;2.67;2.19;;;;;;;20.12;58.79;100891.53;;;;-56
2021/06/06 01:17:14;;;;;;;2.47;2.21;;;;;;;20.13;58.80;100892.83;;;;-54
2021/06/06 01:20:14;;;;;;;2.14;1.94;;;;;;;20.13;58.80;100891.94;;;;-54
2021/06/06 01:23:14;;;;;;;2.22;2.01;;;;;;;20.12;58.79;100892.27;;;;-54
2021/06/06 01:26:14;;;;;;;2.19;1.99;;;;;;;20.12;58.75;100890.06;;;;-54
2021/06/06 01:29:14;;;;;;;2.37;2.17;;;;;;;20.11;58.81;100885.68;;;;-54
2021/06/06 01:32:14;;;;;;;2.20;2.00;;;;;;;20.11;58.85;100885.19;;;;-55
2021/06/06 01:35:14;;;;;;;2.35;2.15;;;;;;;20.10;58.81;100880.13;;;;-54
2021/06/06 01:38:14;;;;;;;3.39;2.17;;;;;;;20.10;58.86;100880.61;;;;-55
2021/06/06 01:41:15;;;;;;;2.53;2.20;;;;;;;20.10;58.83;100879.14;;;;-55
2021/06/06 01:44:15;;;;;;;2.49;2.27;;;;;;;20.09;58.78;100874.27;;;;-55
2021/06/06 01:47:14;;;;;;;2.24;2.04;;;;;;;20.09;58.81;100872.64;;;;-55
2021/06/06 01:50:14;;;;;;;2.84;2.18;;;;;;;20.08;58.79;100876.52;;;;-54
2021/06/06 01:53:14;;;;;;;3.29;2.17;;;;;;;20.09;58.83;100877.36;;;;-54
2021/06/06 01:56:14;;;;;;;2.39;2.10;;;;;;;20.08;58.77;100874.23;;;;-54
2021/06/06 01:59:15;;;;;;;2.44;2.15;;;;;;;20.08;58.76;100874.48;;;;-54
2021/06/06 02:02:14;;;;;;;2.26;2.02;;;;;;;20.07;58.80;100874.33;;;;-55
2021/06/06 02:05:16;;;;;;;2.35;2.15;;;;;;;20.08;58.78;100877.49;;;;-54
2021/06/06 02:08:14;;;;;;;2.49;2.19;;;;;;;20.07;58.81;100874.97;;;;-55
2021/06/06 02:11:14;;;;;;;2.55;2.35;;;;;;;20.07;58.78;100873.67;;;;-55
2021/06/06 02:14:14;;;;;;;2.35;2.15;;;;;;;20.06;58.71;100872.34;;;;-54
2021/06/06 02:17:14;;;;;;;2.60;2.40;;;;;;;20.06;58.77;100875.36;;;;-55
2021/06/06 02:20:14;;;;;;;2.57;2.25;;;;;;;20.07;58.77;100879.61;;;;-55
2021/06/06 02:23:14;;;;;;;2.71;2.49;;;;;;;20.06;58.76;100874.70;;;;-54
2021/06/06 02:26:14;;;;;;;2.18;1.97;;;;;;;20.06;58.79;100876.98;;;;-54
2021/06/06 02:29:14;;;;;;;2.65;2.43;;;;;;;20.06;58.76;100880.41;;;;-54
2021/06/06 02:32:14;;;;;;;2.48;2.28;;;;;;;20.05;58.77;100880.81;;;;-54
2021/06/06 02:35:14;;;;;;;2.70;2.50;;;;;;;20.05;58.79;100882.28;;;;-55
2021/06/06 02:38:14;;;;;;;2.53;2.33;;;;;;;20.05;58.80;100879.51;;;;-54
2021/06/06 02:41:14;;;;;;;2.57;2.37;;;;;;;20.04;58.75;100880.78;;;;-54
2021/06/06 02:44:14;;;;;;;2.59;2.39;;;;;;;20.04;58.75;100877.28;;;;-54
2021/06/06 02:47:14;;;;;;;2.43;2.23;;;;;;;20.04;58.77;100874.93;;;;-55
2021/06/06 02:50:14;;;;;;;3.10;2.43;;;;;;;20.04;58.75;100877.28;;;;-54
2021/06/06 02:53:14;;;;;;;3.51;2.40;;;;;;;20.03;58.68;100869.23;;;;-54
2021/06/06 02:56:14;;;;;;;2.39;2.19;;;;;;;20.03;58.78;100869.32;;;;-55
2021/06/06 02:59:14;;;;;;;2.49;2.29;;;;;;;20.03;58.69;100870.95;;;;-55
2021/06/06 03:02:14;;;;;;;2.39;2.19;;;;;;;20.02;58.77;100869.70;;;;-55
2021/06/06 03:05:14;;;;;;;2.69;2.17;;;;;;;20.02;58.70;100869.29;;;;-54
2021/06/06 03:08:14;;;;;;;2.30;2.10;;;;;;;20.02;58.72;100869.12;;;;-54
2021/06/06 03:11:14;;;;;;;2.29;2.09;;;;;;;20.01;58.67;100872.47;;;;-55
2021/06/06 03:14:14;;;;;;;2.27;2.06;;;;;;;20.02;58.65;100872.38;;;;-55
2021/06/06 03:17:14;;;;;;;2.69;2.49;;;;;;;20.01;58.73;100873.77;;;;-54
2021/06/06 03:20:14;;;;;;;2.30;2.10;;;;;;;20.02;58.70;100875.23;;;;-54
2021/06/06 03:23:14;;;;;;;2.45;2.25;;;;;;;20.02;58.67;100879.55;;;;-54
2021/06/06 03:26:14;;;;;;;2.47;2.27;;;;;;;20.01;58.69;100877.11;;;;-55
2021/06/06 03:29:14;;;;;;;2.51;2.31;;;;;;;20.01;58.66;100879.88;;;;-54
2021/06/06 03:32:15;;;;;;;2.38;2.18;;;;;;;20.00;58.71;100877.89;;;;-55
2021/06/06 03:35:14;;;;;;;2.31;2.11;;;;;;;20.00;58.66;100878.30;;;;-55
2021/06/06 03:38:15;;;;;;;2.57;2.23;;;;;;;20.00;58.63;100880.73;;;;-54
2021/06/06 03:41:14;;;;;;;3.42;2.52;;;;;;;20.00;58.65;100878.78;;;;-54
2021/06/06 03:44:14;;;;;;;2.57;2.37;;;;;;;20.00;58.60;100876.19;;;;-54
2021/06/06 03:47:14;;;;;;;2.93;2.60;;;;;;;20.00;58.65;100874.47;;;;-54
2021/06/06 03:50:14;;;;;;;2.87;2.60;;;;;;;19.99;58.66;100875.21;;;;-54
2021/06/06 03:53:14;;;;;;;2.73;2.47;;;;;;;19.99;58.68;100868.95;;;;-54
2021/06/06 03:56:14;;;;;;;2.46;2.26;;;;;;;19.99;58.70;100871.80;;;;-54
2021/06/06 03:59:14;;;;;;;2.95;2.63;;;;;;;19.99;58.67;100868.78;;;;-54
2021/06/06 04:02:14;;;;;;;2.89;2.66;;;;;;;19.98;58.65;100867.32;;;;-55
2021/06/06 04:05:14;;;;;;;2.90;2.60;;;;;;;19.98;58.62;100870.73;;;;-54
2021/06/06 04:08:14;;;;;;;2.75;2.55;;;;;;;19.98;58.65;100870.79;;;;-54
2021/06/06 04:11:14;;;;;;;2.97;2.67;;;;;;;19.98;58.65;100871.77;;;;-55
2021/06/06 04:14:14;;;;;;;2.77;2.52;;;;;;;19.98;58.67;100869.08;;;;-54
2021/06/06 04:17:14;;;;;;;3.08;2.78;;;;;;;19.97;58.62;100867.62;;;;-54
2021/06/06 04:20:14;;;;;;;3.02;2.71;;;;;;;19.97;58.62;100868.11;;;;-54
2021/06/06 04:23:14;;;;;;;2.90;2.64;;;;;;;19.97;58.67;100868.44;;;;-54
2021/06/06 04:26:14;;;;;;;3.47;2.92;;;;;;;19.97;58.66;100867.30;;;;-54
2021/06/06 04:29:14;;;;;;;3.30;2.80;;;;;;;19.97;58.68;100867.86;;;;-55
2021/06/06 04:32:16;;;;;;;3.11;2.83;;;;;;;19.96;58.64;100864.37;;;;-55
2021/06/06 04:35:14;;;;;;;2.93;2.73;;;;;;;19.98;58.60;100870.30;;;;-55
2021/06/06 04:38:14;;;;;;;3.11;2.81;;;;;;;19.96;58.60;100869.73;;;;-54
2021/06/06 04:41:14;;;;;;;3.09;2.79;;;;;;;19.97;58.62;100867.22;;;;-54
2021/06/06 04:44:14;;;;;;;2.91;2.71;;;;;;;19.96;58.65;100871.75;;;;-54
2021/06/06 04:47:14;;;;;;;2.93;2.67;;;;;;;19.95;59.04;100868.17;;;;-51
2021/06/06 04:50:14;;;;;;;21.22;16.87;;;;;;;19.92;63.99;100864.78;;;;-53
2021/06/06 04:53:14;;;;;;;27.05;20.27;;;;;;;19.94;65.94;100865.13;;;;-51
2021/06/06 04:56:14;;;;;;;27.89;21.43;;;;;;;19.91;67.20;100861.13;;;;-52
2021/06/06 04:59:14;;;;;;;28.21;22.61;;;;;;;19.89;67.65;100861.27;;;;-51
2021/06/06 05:02:14;;;;;;;29.42;22.75;;;;;;;19.89;68.19;100865.50;;;;-59
2021/06/06 05:05:14;;;;;;;31.25;23.57;;;;;;;19.91;68.97;100862.52;;;;-54
2021/06/06 05:08:14;;;;;;;27.95;23.05;;;;;;;19.88;69.57;100867.78;;;;-59
2021/06/06 05:11:14;;;;;;;28.15;21.43;;;;;;;19.86;68.68;100865.23;;;;-55
2021/06/06 05:14:14;;;;;;;23.97;19.96;;;;;;;19.88;68.20;100865.50;;;;-54
2021/06/06 05:17:14;;;;;;;23.96;20.15;;;;;;;19.89;67.12;100862.56;;;;-54
2021/06/06 05:20:14;;;;;;;23.26;19.09;;;;;;;19.91;66.55;100866.02;;;;-54
2021/06/06 05:23:14;;;;;;;21.68;17.76;;;;;;;19.92;66.16;100869.37;;;;-54
2021/06/06 05:26:14;;;;;;;20.40;17.31;;;;;;;19.94;65.98;100866.84;;;;-54
2021/06/06 05:29:14;;;;;;;18.91;15.79;;;;;;;19.94;65.65;100865.66;;;;-54
2021/06/06 05:32:14;;;;;;;18.90;16.17;;;;;;;19.96;65.31;100867.35;;;;-54
2021/06/06 05:35:14;;;;;;;19.21;15.83;;;;;;;19.97;64.94;100866.41;;;;-54
2021/06/06 05:38:14;;;;;;;18.10;15.14;;;;;;;19.97;64.71;100867.30;;;;-54
2021/06/06 05:41:14;;;;;;;17.73;14.94;;;;;;;19.98;64.61;100870.47;;;;-54
2021/06/06 05:44:14;;;;;;;16.33;14.07;;;;;;;19.98;64.23;100870.95;;;;-54
2021/06/06 05:47:14;;;;;;;15.81;13.60;;;;;;;19.99;64.13;100870.98;;;;-54
2021/06/06 05:50:14;;;;;;;16.69;13.54;;;;;;;19.99;63.94;100874.97;;;;-55
2021/06/06 05:53:14;;;;;;;14.56;12.90;;;;;;;19.99;63.82;100877.41;;;;-54
2021/06/06 05:56:14;;;;;;;14.10;12.06;;;;;;;19.99;63.62;100876.91;;;;-54
2021/06/06 05:59:14;;;;;;;13.57;11.67;;;;;;;20.00;63.46;100878.22;;;;-54
2021/06/06 06:02:14;;;;;;;12.72;11.35;;;;;;;19.99;63.36;100877.56;;;;-54
2021/06/06 06:05:14;;;;;;;13.02;11.07;;;;;;;20.00;63.17;100877.24;;;;-54
2021/06/06 06:08:14;;;;;;;12.03;10.80;;;;;;;20.00;63.05;100880.41;;;;-54
2021/06/06 06:11:14;;;;;;;11.49;10.29;;;;;;;20.01;63.00;100883.29;;;;-55
2021/06/06 06:14:14;;;;;;;11.15;9.96;;;;;;;20.01;62.79;100887.28;;;;-51
2021/06/06 06:17:14;;;;;;;11.58;10.38;;;;;;;20.01;62.75;100886.87;;;;-52
2021/06/06 06:20:14;;;;;;;11.01;9.83;;;;;;;20.01;62.67;100881.74;;;;-52
2021/06/06 06:23:14;;;;;;;10.81;9.71;;;;;;;20.01;62.52;100882.80;;;;-51
2021/06/06 06:26:14;;;;;;;10.15;9.07;;;;;;;20.01;62.40;100888.73;;;;-51
2021/06/06 06:29:14;;;;;;;10.25;9.07;;;;;;;20.01;62.28;100892.81;;;;-51
2021/06/06 06:32:14;;;;;;;10.63;8.71;;;;;;;20.02;62.24;100893.86;;;;-51
2021/06/06 06:35:14;;;;;;;9.36;8.46;;;;;;;20.01;62.24;100889.80;;;;-51
2021/06/06 06:38:14;;;;;;;9.33;8.38;;;;;;;20.01;62.11;100888.50;;;;-51
2021/06/06 06:41:14;;;;;;;9.16;8.19;;;;;;;20.01;62.07;100895.81;;;;-51
2021/06/06 06:44:14;;;;;;;9.28;8.37;;;;;;;20.01;62.00;100895.41;;;;-51
2021/06/06 06:47:14;;;;;;;8.43;7.63;;;;;;;20.01;61.94;100898.99;;;;-51
2021/06/06 06:50:14;;;;;;;8.86;7.79;;;;;;;20.01;61.89;100902.98;;;;-51
2021/06/06 06:53:14;;;;;;;8.53;7.70;;;;;;;20.02;61.83;100910.30;;;;-51
2021/06/06 06:56:14;;;;;;;8.71;7.39;;;;;;;20.01;61.79;100908.02;;;;-51
2021/06/06 06:59:14;;;;;;;9.95;7.61;;;;;;;20.01;61.73;100908.75;;;;-51
2021/06/06 07:02:14;;;;;;;7.92;7.12;;;;;;;20.01;61.64;100913.47;;;;-51
2021/06/06 07:05:14;;;;;;;7.74;7.04;;;;;;;20.00;61.61;100914.25;;;;-51
2021/06/06 07:08:14;;;;;;;7.80;7.00;;;;;;;20.01;61.53;100914.77;;;;-51
2021/06/06 07:11:14;;;;;;;7.91;6.91;;;;;;;20.01;61.55;100910.22;;;;-52
2021/06/06 07:14:14;;;;;;;7.89;7.17;;;;;;;20.00;61.51;100912.47;;;;-51
2021/06/06 07:17:14;;;;;;;7.59;6.88;;;;;;;20.01;61.40;100916.00;;;;-51
2021/06/06 07:20:14;;;;;;;7.45;6.75;;;;;;;20.01;61.41;100915.66;;;;-52
2021/06/06 07:23:14;;;;;;;7.27;6.57;;;;;;;20.00;61.39;100914.34;;;;-51
2021/06/06 07:26:14;;;;;;;7.40;6.70;;;;;;;20.00;61.35;100918.98;;;;-51
2021/06/06 07:29:14;;;;;;;7.10;6.41;;;;;;;20.00;61.32;100920.77;;;;-52
2021/06/06 07:32:14;;;;;;;7.33;6.70;;;;;;;20.01;61.30;100922.66;;;;-52
2021/06/06 07:35:14;;;;;;;7.37;6.67;;;;;;;20.00;61.25;100922.88;;;;-51
2021/06/06 07:38:14;;;;;;;6.94;6.34;;;;;;;20.01;61.22;100923.64;;;;-51
2021/06/06 07:41:15;;;;;;;6.99;6.39;;;;;;;20.01;61.17;100923.48;;;;-50
2021/06/06 07:44:15;;;;;;;6.21;5.71;;;;;;;20.00;61.04;100919.22;;;;-51
2021/06/06 07:47:14;;;;;;;6.91;6.31;;;;;;;20.00;61.13;100918.81;;;;-51
2021/06/06 07:50:14;;;;;;;6.56;5.96;;;;;;;20.00;61.02;100917.84;;;;-51
2021/06/06 07:53:14;;;;;;;6.96;6.36;;;;;;;19.99;61.04;100917.27;;;;-51
2021/06/06 07:56:14;;;;;;;6.81;6.21;;;;;;;20.00;61.02;100922.06;;;;-51
2021/06/06 07:59:14;;;;;;;6.01;5.51;;;;;;;20.00;61.04;100918.98;;;;-51
2021/06/06 08:02:14;;;;;;;6.67;6.07;;;;;;;19.99;60.93;100920.69;;;;-51
2021/06/06 08:05:14;;;;;;;6.50;5.90;;;;;;;19.99;60.95;100921.50;;;;-51
2021/06/06 08:08:14;;;;;;;6.68;6.08;;;;;;;19.99;60.96;100917.76;;;;-50
2021/06/06 08:11:14;;;;;;;6.67;6.07;;;;;;;20.00;60.92;100922.06;;;;-50
2021/06/06 08:14:14;;;;;;;6.33;5.79;;;;;;;20.00;60.75;100918.56;;;;-51
2021/06/06 08:17:14;;;;;;;6.43;5.79;;;;;;;19.98;60.88;100919.06;;;;-50
2021/06/06 08:20:14;;;;;;;6.14;5.62;;;;;;;19.98;60.89;100918.47;;;;-51
2021/06/06 08:23:14;;;;;;;6.03;5.53;;;;;;;19.99;60.86;100918.73;;;;-51
2021/06/06 08:26:17;;;;;;;6.34;5.75;;;;;;;19.98;60.87;100916.30;;;;-51
2021/06/06 08:29:14;;;;;;;6.43;5.87;;;;;;;19.98;60.86;100915.21;;;;-51
2021/06/06 08:32:14;;;;;;;6.44;5.87;;;;;;;19.98;60.83;100911.25;;;;-51
2021/06/06 08:35:14;;;;;;;6.71;6.11;;;;;;;19.99;60.81;100908.73;;;;-51
2021/06/06 08:38:14;;;;;;;6.40;5.80;;;;;;;19.99;60.81;100910.59;;;;-51
2021/06/06 08:41:14;;;;;;;7.51;5.53;;;;;;;20.00;60.77;100908.31;;;;-50
2021/06/06 08:44:14;;;;;;;6.45;5.85;;;;;;;20.01;61.03;100907.94;;;;-49
2021/06/06 08:47:14;;;;;;;6.73;6.12;;;;;;;20.02;61.32;100909.80;;;;-50
2021/06/06 08:50:14;;;;;;;6.30;5.74;;;;;;;20.03;61.46;100917.48;;;;-51
2021/06/06 08:53:14;;;;;;;6.34;5.79;;;;;;;20.05;61.53;100918.00;;;;-51
2021/06/06 08:56:19;;;;;;;6.02;5.27;;;;;;;20.06;61.26;100913.27;;;;-51
2021/06/06 08:59:14;;;;;;;8.37;5.75;;;;;;;20.06;61.26;100914.41;;;;-51
2021/06/06 09:02:15;;;;;;;6.50;5.73;;;;;;;20.05;61.43;100916.13;;;;-51
2021/06/06 09:05:14;;;;;;;7.38;5.42;;;;;;;20.06;61.32;100921.16;;;;-51
2021/06/06 09:08:14;;;;;;;6.67;5.45;;;;;;;20.06;61.32;100922.14;;;;-51
2021/06/06 09:11:14;;;;;;;6.13;5.57;;;;;;;20.05;61.29;100916.36;;;;-51
2021/06/06 09:14:14;;;;;;;6.31;5.71;;;;;;;20.05;61.08;100917.02;;;;-51
2021/06/06 09:17:14;;;;;;;6.39;5.77;;;;;;;20.05;61.21;100920.84;;;;-51
2021/06/06 09:20:14;;;;;;;7.36;5.56;;;;;;;20.05;61.11;100913.36;;;;-47
2021/06/06 09:23:15;;;;;;;6.33;5.73;;;;;;;20.08;61.53;100915.58;;;;-52
2021/06/06 09:26:14;;;;;;;6.81;5.82;;;;;;;20.11;62.08;100921.07;;;;-50
2021/06/06 09:29:14;;;;;;;9.87;5.86;;;;;;;20.12;62.06;100916.27;;;;-50
2021/06/06 09:32:14;;;;;;;7.03;5.71;;;;;;;20.13;62.10;100920.25;;;;-50
2021/06/06 09:35:14;;;;;;;7.33;5.81;;;;;;;20.13;62.21;100919.06;;;;-52
2021/06/06 09:38:14;;;;;;;8.65;5.83;;;;;;;20.15;62.09;100919.55;;;;-54
2021/06/06 09:41:14;;;;;;;6.41;5.43;;;;;;;20.15;62.21;100919.33;;;;-50
2021/06/06 09:44:14;;;;;;;6.29;5.69;;;;;;;20.17;62.25;100922.50;;;;-53
2021/06/06 09:47:14;;;;;;;6.82;5.93;;;;;;;20.17;62.17;100921.84;;;;-54
2021/06/06 09:50:14;;;;;;;6.81;5.56;;;;;;;20.18;62.05;100919.51;;;;-53
2021/06/06 09:53:14;;;;;;;6.23;5.60;;;;;;;20.20;62.12;100921.33;;;;-54
2021/06/06 09:56:14;;;;;;;6.73;5.79;;;;;;;20.20;62.01;100921.16;;;;-48
2021/06/06 09:59:14;;;;;;;7.35;5.51;;;;;;;20.22;62.03;100921.67;;;;-47
2021/06/06 10:02:14;;;;;;;7.96;6.06;;;;;;;20.23;62.08;100923.45;;;;-52
2021/06/06 10:05:14;;;;;;;6.39;5.79;;;;;;;20.24;62.03;100922.34;;;;-53
2021/06/06 10:08:14;;;;;;;6.89;5.43;;;;;;;20.25;62.16;100921.13;;;;-56
2021/06/06 10:11:14;;;;;;;6.27;5.67;;;;;;;20.25;62.01;100920.58;;;;-48
2021/06/06 10:14:14;;;;;;;6.25;5.65;;;;;;;20.26;62.02;100920.41;;;;-49
2021/06/06 10:17:14;;;;;;;5.95;5.18;;;;;;;20.27;61.94;100915.52;;;;-52
2021/06/06 10:20:14;;;;;;;6.10;5.50;;;;;;;20.28;61.84;100915.80;;;;-50
2021/06/06 10:23:14;;;;;;;7.50;5.19;;;;;;;20.28;61.80;100910.67;;;;-51
2021/06/06 10:26:14;;;;;;;7.07;5.43;;;;;;;20.31;61.66;100915.24;;;;-47
2021/06/06 10:29:16;;;;;;;6.04;5.35;;;;;;;20.31;61.64;100917.44;;;;-50
2021/06/06 10:32:14;;;;;;;5.53;5.03;;;;;;;20.31;61.72;100916.62;;;;-49
2021/06/06 10:35:14;;;;;;;5.52;5.00;;;;;;;20.32;61.71;100915.35;;;;-51
2021/06/06 10:38:15;;;;;;;5.67;5.04;;;;;;;20.33;61.79;100917.22;;;;-51
2021/06/06 10:41:14;;;;;;;6.47;4.83;;;;;;;20.33;61.53;100917.38;;;;-51
2021/06/06 10:44:14;;;;;;;6.42;5.36;;;;;;;20.33;61.34;100916.56;;;;-51
2021/06/06 10:47:14;;;;;;;5.87;5.02;;;;;;;20.32;61.39;100919.42;;;;-52
2021/06/06 10:50:14;;;;;;;6.79;4.76;;;;;;;20.31;61.22;100918.09;;;;-51
2021/06/06 10:53:14;;;;;;;5.57;4.73;;;;;;;20.30;61.43;100916.30;;;;-51
2021/06/06 10:56:14;;;;;;;6.03;5.04;;;;;;;20.30;61.21;100917.61;;;;-51
2021/06/06 10:59:14;;;;;;;5.40;4.90;;;;;;;20.28;61.31;100910.83;;;;-51
2021/06/06 11:02:14;;;;;;;5.13;4.71;;;;;;;20.28;61.08;100911.80;;;;-51
2021/06/06 11:05:14;;;;;;;5.15;4.65;;;;;;;20.29;61.05;100913.02;;;;-51
2021/06/06 11:08:14;;;;;;;5.19;4.68;;;;;;;20.28;61.03;100907.33;;;;-51
2021/06/06 11:11:14;;;;;;;5.31;4.81;;;;;;;20.27;61.10;100903.19;;;;-51
2021/06/06 11:14:14;;;;;;;5.35;4.69;;;;;;;20.27;61.07;100901.77;;;;-56
2021/06/06 11:17:14;;;;;;;4.73;4.33;;;;;;;20.27;60.84;100902.09;;;;-51
2021/06/06 11:20:14;;;;;;;5.67;4.42;;;;;;;20.27;60.88;100899.16;;;;-51
2021/06/06 11:23:14;;;;;;;4.88;4.44;;;;;;;20.27;60.72;100897.22;;;;-51
2021/06/06 11:26:14;;;;;;;5.05;4.55;;;;;;;20.26;60.82;100896.24;;;;-53
2021/06/06 11:29:14;;;;;;;5.27;4.77;;;;;;;20.25;60.73;100893.39;;;;-54
2021/06/06 11:32:16;;;;;;;4.96;4.56;;;;;;;20.25;60.82;100885.39;;;;-54
2021/06/06 11:35:14;;;;;;;4.91;4.50;;;;;;;20.25;60.83;100884.98;;;;-54
2021/06/06 11:38:14;;;;;;;5.07;4.57;;;;;;;20.24;60.81;100877.83;;;;-51
2021/06/06 11:41:14;;;;;;;5.79;4.33;;;;;;;20.24;60.68;100879.38;;;;-54
2021/06/06 11:44:14;;;;;;;4.70;4.30;;;;;;;20.24;60.77;100875.38;;;;-54
2021/06/06 11:47:14;;;;;;;5.13;4.63;;;;;;;20.24;60.65;100875.47;;;;-51
2021/06/06 11:50:14;;;;;;;4.61;4.21;;;;;;;20.23;60.71;100871.53;;;;-54
2021/06/06 11:53:14;;;;;;;4.75;4.21;;;;;;;20.24;60.68;100870.99;;;;-51
2021/06/06 11:56:14;;;;;;;5.02;4.52;;;;;;;20.23;60.53;100869.98;;;;-51
2021/06/06 11:59:14;;;;;;;5.06;4.57;;;;;;;20.24;60.62;100864.23;;;;-51
2021/06/06 12:02:14;;;;;;;4.85;4.31;;;;;;;20.24;60.50;100870.58;;;;-51
2021/06/06 12:05:14;;;;;;;5.29;4.73;;;;;;;20.23;60.51;100868.28;;;;-51
2021/06/06 12:08:14;;;;;;;5.00;4.50;;;;;;;20.22;60.49;100866.58;;;;-51
2021/06/06 12:11:14;;;;;;;4.75;4.35;;;;;;;20.23;60.55;100869.83;;;;-51
2021/06/06 12:14:14;;;;;;;4.61;4.21;;;;;;;20.22;60.61;100865.59;;;;-52
2021/06/06 12:17:14;;;;;;;5.09;4.59;;;;;;;20.21;60.39;100866.55;;;;-54
2021/06/06 12:20:14;;;;;;;4.50;4.10;;;;;;;20.22;60.45;100863.08;;;;-51
2021/06/06 12:23:14;;;;;;;4.29;3.89;;;;;;;20.21;60.45;100860.61;;;;-54
2021/06/06 12:26:14;;;;;;;4.44;4.04;;;;;;;20.21;60.45;100862.23;;;;-54
2021/06/06 12:29:14;;;;;;;4.59;4.19;;;;;;;20.21;60.32;100858.66;;;;-51
2021/06/06 12:32:14;;;;;;;4.67;4.27;;;;;;;20.21;60.45;100857.76;;;;-51
2021/06/06 12:35:18;;;;;;;4.61;4.21;;;;;;;20.21;60.44;100858.90;;;;-50
2021/06/06 12:38:16;;;;;;;4.51;4.11;;;;;;;20.22;60.73;100853.14;;;;-52
2021/06/06 12:41:14;;;;;;;5.01;4.17;;;;;;;20.23;60.65;100853.38;;;;-54
2021/06/06 12:44:14;;;;;;;4.45;4.04;;;;;;;20.24;60.75;100856.58;;;;-52
2021/06/06 12:47:14;;;;;;;4.36;3.96;;;;;;;20.25;60.66;100856.12;;;;-52
2021/06/06 12:50:14;;;;;;;4.29;3.89;;;;;;;20.27;61.08;100858.09;;;;-51
2021/06/06 12:53:14;;;;;;;4.37;3.97;;;;;;;20.28;61.02;100857.77;;;;-56
2021/06/06 12:56:14;;;;;;;4.49;4.09;;;;;;;20.29;61.00;100850.68;;;;-51
2021/06/06 12:59:14;;;;;;;4.37;3.96;;;;;;;20.30;61.21;100855.18;;;;-51
2021/06/06 13:02:14;;;;;;;4.52;4.08;;;;;;;20.31;61.11;100853.63;;;;-53
2021/06/06 13:05:14;;;;;;;7.57;4.09;;;;;;;20.34;61.01;100856.52;;;;-58
2021/06/06 13:08:14;;;;;;;4.93;3.84;;;;;;;20.33;60.94;100848.35;;;;-58
2021/06/06 13:11:14;;;;;;;4.27;3.79;;;;;;;20.32;60.93;100849.83;;;;-58
2021/06/06 13:14:14;;;;;;;4.03;3.71;;;;;;;20.32;60.81;100851.21;;;;-57
2021/06/06 13:17:14;;;;;;;4.53;3.67;;;;;;;20.30;60.81;100850.70;;;;-50
2021/06/06 13:20:14;;;;;;;5.62;3.95;;;;;;;20.31;60.72;100853.55;;;;-50
2021/06/06 13:23:14;;;;;;;4.23;3.83;;;;;;;20.29;60.77;100850.76;;;;-50
2021/06/06 13:26:20;;;;;;;4.23;3.85;;;;;;;20.29;60.56;100849.78;;;;-50
2021/06/06 13:29:14;;;;;;;5.01;3.61;;;;;;;20.28;60.64;100849.38;;;;-50
2021/06/06 13:32:14;;;;;;;4.19;3.73;;;;;;;20.29;60.61;100853.45;;;;-51
2021/06/06 13:35:14;;;;;;;4.19;3.79;;;;;;;20.27;60.52;100854.19;;;;-53
2021/06/06 13:38:14;;;;;;;4.81;3.77;;;;;;;20.28;60.50;100854.43;;;;-50
2021/06/06 13:41:15;;;;;;;4.34;3.55;;;;;;;20.28;60.41;100858.58;;;;-50
2021/06/06 13:44:14;;;;;;;4.11;3.71;;;;;;;20.27;60.44;100857.93;;;;-58
2021/06/06 13:47:14;;;;;;;4.25;3.83;;;;;;;20.27;60.40;100857.50;;;;-50
2021/06/06 13:50:14;;;;;;;3.97;3.67;;;;;;;20.26;60.41;100850.66;;;;-56
2021/06/06 13:53:14;;;;;;;4.83;3.70;;;;;;;20.28;60.63;100853.37;;;;-60
2021/06/06 13:56:14;;;;;;;4.07;3.51;;;;;;;20.29;60.66;100852.80;;;;-58
2021/06/06 13:59:14;;;;;;;5.11;3.75;;;;;;;20.31;60.87;100850.13;;;;-53
2021/06/06 14:02:14;;;;;;;5.54;3.78;;;;;;;20.31;60.94;100850.70;;;;-53
2021/06/06 14:05:14;;;;;;;5.15;3.90;;;;;;;20.32;60.61;100854.63;;;;-48
2021/06/06 14:08:14;;;;;;;4.49;3.53;;;;;;;20.33;60.74;100860.08;;;;-54
2021/06/06 14:11:14;;;;;;;5.65;3.93;;;;;;;20.34;60.80;100856.69;;;;-53
2021/06/06 14:14:14;;;;;;;4.76;3.79;;;;;;;20.34;60.99;100856.77;;;;-52
2021/06/06 14:17:14;;;;;;;4.11;3.78;;;;;;;20.36;61.17;100857.00;;;;-50
2021/06/06 14:20:14;;;;;;;4.35;3.85;;;;;;;20.36;61.20;100857.52;;;;-51
2021/06/06 14:23:14;;;;;;;4.27;3.87;;;;;;;20.37;60.99;100856.45;;;;-58
2021/06/06 14:26:14;;;;;;;4.69;3.88;;;;;;;20.39;61.55;100865.27;;;;-53
2021/06/06 14:29:14;;;;;;;5.16;3.85;;;;;;;20.39;61.28;100860.30;;;;-57
2021/06/06 14:32:14;;;;;;;4.16;3.85;;;;;;;20.40;61.19;100859.64;;;;-58
2021/06/06 14:35:14;;;;;;;4.37;3.97;;;;;;;20.41;61.28;100862.84;;;;-57
2021/06/06 14:38:14;;;;;;;4.08;3.69;;;;;;;20.41;61.19;100853.48;;;;-58
2021/06/06 14:41:14;;;;;;;4.34;3.93;;;;;;;20.42;61.24;100853.87;;;;-58
2021/06/06 14:44:14;;;;;;;3.98;3.68;;;;;;;20.43;61.12;100856.84;;;;-53
2021/06/06 14:47:14;;;;;;;4.06;3.66;;;;;;;20.43;61.18;100852.69;;;;-54
2021/06/06 14:50:14;;;;;;;4.17;3.77;;;;;;;20.43;61.09;100849.26;;;;-57
2021/06/06 14:53:14;;;;;;;4.11;3.69;;;;;;;20.45;61.12;100850.02;;;;-57
2021/06/06 14:56:14;;;;;;;3.92;3.62;;;;;;;20.45;61.16;100851.23;;;;-54
2021/06/06 14:59:14;;;;;;;4.07;3.69;;;;;;;20.45;61.14;100849.12;;;;-56
2021/06/06 15:02:14;;;;;;;4.10;3.71;;;;;;;20.46;60.99;100853.43;;;;-57
2021/06/06 15:05:14;;;;;;;3.74;3.44;;;;;;;20.46;61.20;100847.02;;;;-57
2021/06/06 15:08:14;;;;;;;3.83;3.53;;;;;;;20.47;60.92;100845.31;;;;-53
2021/06/06 15:11:14;;;;;;;4.51;3.65;;;;;;;20.47;61.05;100847.02;;;;-47
2021/06/06 15:14:14;;;;;;;4.11;3.67;;;;;;;20.48;61.05;100847.85;;;;-58
2021/06/06 15:17:14;;;;;;;5.21;3.89;;;;;;;20.49;61.10;100850.95;;;;-60
2021/06/06 15:20:14;;;;;;;4.13;3.73;;;;;;;20.48;60.96;100853.69;;;;-58
2021/06/06 15:23:14;;;;;;;4.12;3.75;;;;;;;20.49;61.03;100859.89;;;;-51
2021/06/06 15:26:14;;;;;;;4.44;3.59;;;;;;;20.50;60.90;100862.50;;;;-51
2021/06/06 15:29:14;;;;;;;3.89;3.50;;;;;;;20.51;61.00;100856.34;;;;-47
2021/06/06 15:32:14;;;;;;;3.84;3.54;;;;;;;20.51;60.94;100853.56;;;;-52
2021/06/06 15:35:14;;;;;;;3.95;3.61;;;;;;;20.52;60.93;100851.94;;;;-50
2021/06/06 15:38:14;;;;;;;4.97;3.73;;;;;;;20.51;60.96;100848.77;;;;-54
2021/06/06 15:41:17;;;;;;;4.17;3.57;;;;;;;20.52;60.87;100849.48;;;;-51
2021/06/06 15:44:14;;;;;;;3.95;3.63;;;;;;;20.53;60.96;100849.19;;;;-50
2021/06/06 15:47:14;;;;;;;4.15;3.75;;;;;;;20.53;60.89;100846.98;;;;-50
2021/06/06 15:50:14;;;;;;;3.81;3.49;;;;;;;20.53;60.97;100852.20;;;;-50
2021/06/06 15:53:16;;;;;;;4.45;3.46;;;;;;;20.53;60.92;100849.10;;;;-49
2021/06/06 15:56:15;;;;;;;3.67;3.37;;;;;;;20.54;60.90;100846.58;;;;-51
2021/06/06 15:59:14;;;;;;;3.83;3.53;;;;;;;20.55;60.99;100850.83;;;;-49
2021/06/06 16:02:14;;;;;;;4.41;3.69;;;;;;;20.55;61.08;100845.79;;;;-51
2021/06/06 16:05:14;;;;;;;4.31;3.40;;;;;;;20.55;61.12;100840.49;;;;-44
2021/06/06 16:08:14;;;;;;;3.84;3.54;;;;;;;20.56;61.06;100841.88;;;;-52
2021/06/06 16:11:14;;;;;;;3.85;3.49;;;;;;;20.56;60.94;100836.50;;;;-54
2021/06/06 16:14:14;;;;;;;4.80;3.55;;;;;;;20.57;60.75;100835.87;;;;-56
2021/06/06 16:17:14;;;;;;;3.94;3.49;;;;;;;20.55;60.91;100829.58;;;;-54
2021/06/06 16:20:14;;;;;;;4.57;3.37;;;;;;;20.55;60.95;100831.86;;;;-54
2021/06/06 16:23:14;;;;;;;3.63;3.33;;;;;;;20.54;60.82;100834.63;;;;-54
2021/06/06 16:26:14;;;;;;;4.17;3.39;;;;;;;20.53;60.96;100836.00;;;;-54
2021/06/06 16:29:14;;;;;;;5.75;3.53;;;;;;;20.53;60.72;100833.07;;;;-52
2021/06/06 16:32:14;;;;;;;7.11;3.27;;;;;;;20.54;60.90;100830.41;;;;-53
2021/06/06 16:35:14;;;;;;;5.30;3.35;;;;;;;20.55;60.67;100826.16;;;;-50
2021/06/06 16:38:14;;;;;;;4.35;3.50;;;;;;;20.53;60.89;100822.73;;;;-50
2021/06/06 16:41:14;;;;;;;4.19;3.54;;;;;;;20.52;60.88;100824.69;;;;-50